New Chicago, Indiana
Current Conditions -  °F | °C
As of 8:15 PM on Friday 19 Dec 2014 (Local Time) from KGYY Reporting Station
Overcast Overcast  
Wind Chill: 33°   Ceiling: 2700
Heat Index: 33°   Visibility: 10mi
Dew Point: 22°   Wind: 0mph
Humidity: 65%   Direction: NA
Pressure: 30.29"   Gusts: NA
Location:  41.5196°N, 87.2427°W
Report Text: KGYY 200215Z AUTO 00000KT 10SM OVC027 01/M05 A3029 RMK AO2 T00061053
Loading
Personal Weather Stations






























Interactive Weather Map New forecast layout! Learn more

10-Day Weather Forecast

Advertisements
Track Severe Weather on mobile